Time;durP1;ratioP1;P1;durP2;ratioP2;P2;SDS_P1;SDS_P2;PMS_P1;PMS_P2;Temp;Humidity;BMP_temperature;BMP_pressure;BME280_temperature;BME280_humidity;BME280_pressure;Samples;Min_cycle;Max_cycle;Signal;HPM_P1;HPM_P2
2023/08/23 00:00:05;;;;;;;1.02;0.40;;;25.50;65.80;;;;;;5053144;28;20068;-75
2023/08/23 00:02:31;;;;;;;1.08;0.50;;;;;;;;;;5052995;28;20041;-75
2023/08/23 00:04:58;;;;;;;0.50;0.50;;;;;;;;;;5053563;28;20040;-74
2023/08/23 00:07:24;;;;;;;0.52;0.40;;;;;;;;;;5053283;28;20094;-74
2023/08/23 00:09:51;;;;;;;1.45;0.40;;;;;;;;;;5054134;28;20033;-69
2023/08/23 00:12:17;;;;;;;1.30;0.52;;;;;;;;;;5053433;28;20468;-69
2023/08/23 00:14:44;;;;;;;1.00;0.40;;;;;;;;;;5053447;28;20033;-69
2023/08/23 00:17:10;;;;;;;0.22;0.22;;;;;;;;;;5053265;28;20407;-69
2023/08/23 00:19:37;;;;;;;0.50;0.35;;;;;;;;;;5053064;28;20045;-70
2023/08/23 00:22:04;;;;;;;1.25;0.47;;;25.80;66.10;;;;;;5053335;28;20411;-71
2023/08/23 00:24:30;;;;;;;0.88;0.40;;;;;;;;;;5053215;28;20087;-69
2023/08/23 00:26:57;;;;;;;0.50;0.32;;;;;;;;;;5053256;28;20041;-69
2023/08/23 00:29:23;;;;;;;0.43;0.30;;;;;;;;;;5052805;28;20044;-69
2023/08/23 00:31:50;;;;;;;0.90;0.40;;;;;;;;;;5053139;28;20037;-70
2023/08/23 00:34:16;;;;;;;0.60;0.25;;;;;;;;;;5052686;28;20491;-70
2023/08/23 00:36:43;;;;;;;0.40;0.40;;;;;;;;;;5053256;28;20041;-70
2023/08/23 00:39:09;;;;;;;0.95;0.30;;;;;;;;;;5052828;28;20037;-70
2023/08/23 00:41:37;;;;;;;0.98;0.38;;;;;;;;;;5052639;28;20538;-69
2023/08/23 00:44:03;;;;;;;0.40;0.40;;;25.80;65.40;;;;;;5052935;28;20033;-69
2023/08/23 00:46:30;;;;;;;0.57;0.40;;;;;;;;;;5052393;28;20509;-70
2023/08/23 00:48:56;;;;;;;0.70;0.40;;;;;;;;;;5052878;28;20116;-69
2023/08/23 00:51:23;;;;;;;0.50;0.30;;;;;;;;;;5052732;28;20060;-69
2023/08/23 00:53:50;;;;;;;1.30;0.50;;;;;;;;;;5052643;28;20411;-69
2023/08/23 00:56:16;;;;;;;0.40;0.40;;;;;;;;;;5052371;28;20033;-69
2023/08/23 00:58:43;;;;;;;0.88;0.57;;;;;;;;;;5051623;28;20044;-70
2023/08/23 01:01:09;;;;;;;1.58;0.40;;;;;;;;;;5052415;28;20116;-69
2023/08/23 01:03:36;;;;;;;0.43;0.40;;;;;;;;;;5051929;28;20045;-71
2023/08/23 01:06:14;;;;;;;0.30;0.30;;;25.60;60.70;;;;;;5052911;28;20106;-69
2023/08/23 01:08:58;;;;;;;0.65;0.30;;;25.60;60.60;;;;;;5052412;28;20041;-71
2023/08/23 01:11:30;;;;;;;0.40;0.40;;;25.50;66.30;;;;;;5052458;28;20136;-69
2023/08/23 01:13:56;;;;;;;0.80;0.52;;;;;;;;;;5052424;28;20395;-70
2023/08/23 01:16:24;;;;;;;0.70;0.30;;;25.50;66.60;;;;;;5052010;28;20041;-75
2023/08/23 01:18:52;;;;;;;0.75;0.43;;;25.60;66.60;;;;;;5052104;28;20033;-70
2023/08/23 01:21:25;;;;;;;0.50;0.40;;;25.50;66.30;;;;;;5051714;28;20120;-70
2023/08/23 01:23:51;;;;;;;0.50;0.45;;;;;;;;;;5051899;28;20495;-70
2023/08/23 01:26:17;;;;;;;0.30;0.30;;;;;;;;;;5051781;28;20047;-69
2023/08/23 01:28:43;;;;;;;0.32;0.20;;;;;;;;;;5051767;28;20025;-69
2023/08/23 01:31:09;;;;;;;0.70;0.30;;;;;;;;;;5051798;28;20498;-70
2023/08/23 01:33:44;;;;;;;1.08;0.50;;;25.50;60.70;;;;;;5052275;28;20029;-76
2023/08/23 01:36:16;;;;;;;0.63;0.40;;;25.50;66.40;;;;;;5052125;28;20083;-75
2023/08/23 01:38:42;;;;;;;0.75;0.55;;;;;;;;;;5051615;28;20024;-75
2023/08/23 01:41:09;;;;;;;0.35;0.28;;;;;;;;;;5051512;28;20049;-75
2023/08/23 01:43:35;;;;;;;0.50;0.35;;;;;;;;;;5051618;28;20025;-75
2023/08/23 01:46:01;;;;;;;1.17;0.30;;;;;;;;;;5051658;28;20361;-75
2023/08/23 01:48:26;;;;;;;0.40;0.40;;;;;;;;;;5051832;28;20036;-75
2023/08/23 01:50:52;;;;;;;0.30;0.22;;;;;;;;;;5051550;28;20064;-75
2023/08/23 01:53:18;;;;;;;0.50;0.40;;;;;;;;;;5051530;28;20029;-75
2023/08/23 01:55:44;;;;;;;0.73;0.40;;;;;;;;;;5051490;28;20095;-75
2023/08/23 01:58:10;;;;;;;0.98;0.50;;;;;;;;;;5051759;28;20033;-75
2023/08/23 02:00:36;;;;;;;0.50;0.22;;;;;;;;;;5051294;28;20122;-75
2023/08/23 02:03:03;;;;;;;1.27;0.55;;;;;;;;;;5051538;28;20128;-76
2023/08/23 02:05:31;;;;;;;0.65;0.40;;;25.40;61.30;;;;;;5051324;28;20033;-75
2023/08/23 02:07:57;;;;;;;0.70;0.50;;;;;;;;;;5051261;28;20465;-75
2023/08/23 02:10:23;;;;;;;0.60;0.50;;;;;;;;;;5049697;28;20434;-75
2023/08/23 02:12:49;;;;;;;0.90;0.32;;;;;;;;;;5051146;28;20448;-75
2023/08/23 02:15:15;;;;;;;1.55;0.50;;;;;;;;;;5051324;28;20076;-69
2023/08/23 02:17:41;;;;;;;1.77;0.30;;;;;;;;;;5051121;28;20033;-69
2023/08/23 02:20:07;;;;;;;0.95;0.40;;;;;;;;;;5051202;28;20041;-69
2023/08/23 02:22:33;;;;;;;0.70;0.50;;;;;;;;;;5051096;28;20057;-69
2023/08/23 02:24:59;;;;;;;1.25;0.47;;;;;;;;;;5050986;28;20036;-70
2023/08/23 02:27:25;;;;;;;1.50;0.50;;;;;;;;;;5049836;28;20037;-70
2023/08/23 02:29:51;;;;;;;0.45;0.30;;;;;;;;;;5049705;28;20037;-69
2023/08/23 02:32:17;;;;;;;0.73;0.40;;;;;;;;;;5050274;28;20044;-70
2023/08/23 02:34:43;;;;;;;0.35;0.30;;;;;;;;;;5051048;28;20033;-70
2023/08/23 02:37:09;;;;;;;1.08;0.30;;;;;;;;;;5051037;28;20407;-71
2023/08/23 02:39:35;;;;;;;0.25;0.25;;;;;;;;;;5051087;28;20053;-70
2023/08/23 02:42:01;;;;;;;0.70;0.45;;;;;;;;;;5051101;28;20491;-76
2023/08/23 02:44:27;;;;;;;0.93;0.40;;;;;;;;;;5051229;28;20029;-75
2023/08/23 02:46:53;;;;;;;0.70;0.57;;;;;;;;;;5051024;28;20041;-76
2023/08/23 02:49:19;;;;;;;0.40;0.40;;;;;;;;;;5050977;28;20106;-75
2023/08/23 02:51:45;;;;;;;0.95;0.40;;;;;;;;;;5050959;28;20120;-75
2023/08/23 02:54:11;;;;;;;0.82;0.55;;;;;;;;;;5050929;28;20037;-76
2023/08/23 02:56:37;;;;;;;0.52;0.35;;;;;;;;;;5050987;28;20075;-76
2023/08/23 02:59:03;;;;;;;0.38;0.30;;;;;;;;;;5051244;28;20087;-71
2023/08/23 03:01:29;;;;;;;0.32;0.30;;;;;;;;;;5050740;28;20450;-70
2023/08/23 03:03:55;;;;;;;1.13;0.40;;;;;;;;;;5050655;28;20045;-70
2023/08/23 03:06:21;;;;;;;0.32;0.22;;;;;;;;;;5050733;28;20060;-70
2023/08/23 03:08:47;;;;;;;0.88;0.45;;;;;;;;;;5050743;28;20072;-70
2023/08/23 03:11:13;;;;;;;0.65;0.35;;;;;;;;;;5050934;28;20037;-70
2023/08/23 03:13:39;;;;;;;0.75;0.40;;;;;;;;;;5050846;28;20528;-70
2023/08/23 03:16:05;;;;;;;0.60;0.40;;;;;;;;;;5050536;28;20029;-70
2023/08/23 03:18:31;;;;;;;0.43;0.35;;;;;;;;;;5050706;28;20029;-70
2023/08/23 03:20:57;;;;;;;2.67;0.40;;;;;;;;;;5050605;28;20044;-70
2023/08/23 03:23:23;;;;;;;1.60;0.55;;;;;;;;;;5053108;28;20036;-69
2023/08/23 03:25:50;;;;;;;0.52;0.43;;;;;;;;;;5054130;28;20033;-70
2023/08/23 03:28:16;;;;;;;0.90;0.50;;;;;;;;;;5054688;28;20508;-76
2023/08/23 03:30:42;;;;;;;0.50;0.45;;;;;;;;;;5054183;28;20411;-76
2023/08/23 03:33:08;;;;;;;0.75;0.40;;;;;;;;;;5054421;28;20384;-76
2023/08/23 03:35:34;;;;;;;1.48;0.50;;;;;;;;;;5054135;28;20041;-76
2023/08/23 03:38:00;;;;;;;0.70;0.50;;;;;;;;;;5054230;28;20108;-76
2023/08/23 03:40:26;;;;;;;1.33;0.50;;;;;;;;;;5053921;28;20041;-71
2023/08/23 03:42:52;;;;;;;1.02;0.40;;;;;;;;;;5053984;28;20037;-70
2023/08/23 03:45:19;;;;;;;1.05;0.40;;;;;;;;;;5053811;28;20083;-69
2023/08/23 03:47:45;;;;;;;0.50;0.50;;;;;;;;;;5053721;28;20108;-70
2023/08/23 03:50:12;;;;;;;1.63;0.47;;;;;;;;;;5053559;28;20565;-69
2023/08/23 03:52:38;;;;;;;0.47;0.40;;;;;;;;;;5053845;28;20395;-71
2023/08/23 03:55:05;;;;;;;0.65;0.50;;;;;;;;;;5053683;28;20060;-70
2023/08/23 03:57:31;;;;;;;1.33;0.40;;;;;;;;;;5054175;28;20041;-72
2023/08/23 03:59:57;;;;;;;0.50;0.50;;;;;;;;;;5053574;28;20057;-71
2023/08/23 04:02:23;;;;;;;0.63;0.50;;;;;;;;;;5053455;28;20040;-70
2023/08/23 04:04:49;;;;;;;0.47;0.40;;;;;;;;;;5053535;28;20045;-70
2023/08/23 04:07:16;;;;;;;0.93;0.47;;;24.90;67.60;;;;;;5053390;28;20041;-70
2023/08/23 04:09:42;;;;;;;0.65;0.40;;;;;;;;;;5053516;28;20033;-70
2023/08/23 04:12:08;;;;;;;0.22;0.22;;;24.90;65.00;;;;;;5053246;28;20060;-69
2023/08/23 04:14:35;;;;;;;1.98;0.70;;;;;;;;;;5053280;28;20029;-70
2023/08/23 04:17:01;;;;;;;0.98;0.50;;;;;;;;;;5053142;28;20163;-71
2023/08/23 04:19:27;;;;;;;0.65;0.40;;;;;;;;;;5053034;28;20040;-70
2023/08/23 04:21:53;;;;;;;0.63;0.63;;;;;;;;;;5053117;28;20036;-69
2023/08/23 04:24:20;;;;;;;1.27;0.90;;;24.70;68.10;;;;;;5053487;28;20033;-75
2023/08/23 04:26:46;;;;;;;0.70;0.28;;;;;;;;;;5053065;28;20029;-75
2023/08/23 04:29:12;;;;;;;1.27;0.40;;;;;;;;;;5053033;28;20095;-75
2023/08/23 04:31:38;;;;;;;0.85;0.40;;;;;;;;;;5053067;28;20047;-75
2023/08/23 04:34:04;;;;;;;0.60;0.50;;;;;;;;;;5051919;28;20029;-75
2023/08/23 04:36:31;;;;;;;0.60;0.52;;;;;;;;;;5052908;28;20026;-70
2023/08/23 04:38:57;;;;;;;0.43;0.35;;;;;;;;;;5052938;28;20051;-70
2023/08/23 04:41:23;;;;;;;0.80;0.40;;;;;;;;;;5052561;28;20079;-71
2023/08/23 04:43:49;;;;;;;0.68;0.50;;;;;;;;;;5052764;28;20029;-70
2023/08/23 04:46:16;;;;;;;1.45;0.22;;;24.80;68.10;;;;;;5052569;28;20033;-71
2023/08/23 04:48:42;;;;;;;1.00;0.57;;;;;;;;;;5052535;28;20487;-71
2023/08/23 04:51:09;;;;;;;2.75;0.60;;;;;;;;;;5052553;28;20459;-71
2023/08/23 04:53:35;;;;;;;0.63;0.40;;;;;;;;;;5053058;28;20041;-71
2023/08/23 04:56:01;;;;;;;0.40;0.40;;;;;;;;;;5052532;28;20044;-71
2023/08/23 04:58:29;;;;;;;0.50;0.40;;;;;;;;;;5052516;28;20367;-71
2023/08/23 05:00:59;;;;;;;0.73;0.50;;;24.70;65.60;;;;;;5052356;28;20041;-71
2023/08/23 05:03:25;;;;;;;1.45;0.47;;;24.70;66.40;;;;;;5052236;28;20455;-71
2023/08/23 05:05:52;;;;;;;0.70;0.45;;;24.70;64.80;;;;;;5052399;28;20045;-71
2023/08/23 05:08:18;;;;;;;1.08;0.50;;;;;;;;;;5052378;28;20040;-71
2023/08/23 05:10:44;;;;;;;0.50;0.50;;;;;;;;;;5052693;28;20104;-71
2023/08/23 05:13:10;;;;;;;1.10;0.60;;;;;;;;;;5053136;28;20040;-71
2023/08/23 05:15:37;;;;;;;0.70;0.50;;;;;;;;;;5053130;28;20060;-71
2023/08/23 05:18:03;;;;;;;0.60;0.40;;;;;;;;;;5052761;28;20112;-71
2023/08/23 05:20:30;;;;;;;0.47;0.47;;;;;;;;;;5052896;28;20492;-71
2023/08/23 05:22:56;;;;;;;0.57;0.40;;;;;;;;;;5052681;28;20033;-71
2023/08/23 05:25:23;;;;;;;1.17;0.50;;;;;;;;;;5052832;28;20071;-72
2023/08/23 05:27:49;;;;;;;1.13;0.35;;;;;;;;;;5052943;28;20369;-71
2023/08/23 05:30:15;;;;;;;0.45;0.20;;;;;;;;;;5052522;28;20056;-73
2023/08/23 05:32:41;;;;;;;0.40;0.40;;;;;;;;;;5052387;28;20029;-72
2023/08/23 05:35:08;;;;;;;0.50;0.40;;;;;;;;;;5052338;28;20056;-71
2023/08/23 05:37:34;;;;;;;0.57;0.40;;;;;;;;;;5051605;28;20037;-71
2023/08/23 05:40:01;;;;;;;1.58;0.40;;;;;;;;;;5051834;28;20044;-71
2023/08/23 05:42:27;;;;;;;0.55;0.30;;;;;;;;;;5050676;28;20116;-76
2023/08/23 05:44:54;;;;;;;0.47;0.32;;;;;;;;;;5050335;28;20116;-76
2023/08/23 05:47:20;;;;;;;0.28;0.28;;;;;;;;;;5050601;28;20048;-75
2023/08/23 05:49:47;;;;;;;1.35;0.40;;;;;;;;;;5050479;28;20075;-74
2023/08/23 05:52:13;;;;;;;1.65;0.40;;;;;;;;;;5050529;28;20041;-76
2023/08/23 05:54:41;;;;;;;0.90;0.55;;;;;;;;;;5050458;28;20051;-76
2023/08/23 05:57:07;;;;;;;0.60;0.50;;;;;;;;;;5050481;28;20048;-76
2023/08/23 05:59:34;;;;;;;0.77;0.40;;;;;;;;;;5050783;28;20044;-69
2023/08/23 06:02:01;;;;;;;0.65;0.30;;;;;;;;;;5051409;28;20389;-71
2023/08/23 06:04:28;;;;;;;2.70;0.40;;;24.50;67.10;;;;;;5049728;28;20454;-71
2023/08/23 06:06:54;;;;;;;0.65;0.65;;;;;;;;;;5033728;28;20108;-71
2023/08/23 06:09:21;;;;;;;0.93;0.40;;;;;;;;;;5049977;28;20507;-71
2023/08/23 06:11:47;;;;;;;1.25;0.55;;;;;;;;;;5051263;28;20049;-71
2023/08/23 06:14:21;;;;;;;1.73;0.47;;;24.50;63.50;;;;;;5051083;28;20037;-71
2023/08/23 06:16:47;;;;;;;1.15;0.30;;;;;;;;;;5033670;28;20468;-71
2023/08/23 06:19:13;;;;;;;0.82;0.45;;;;;;;;;;5051010;28;20041;-71
2023/08/23 06:21:41;;;;;;;2.15;0.55;;;24.50;69.20;;;;;;5050925;28;20083;-71
2023/08/23 06:24:07;;;;;;;2.35;0.50;;;;;;;;;;5051058;28;20127;-71
2023/08/23 06:26:33;;;;;;;1.30;0.50;;;;;;;;;;5051549;28;20136;-69
2023/08/23 06:29:00;;;;;;;1.30;0.50;;;;;;;;;;5050950;28;20391;-69
2023/08/23 06:31:26;;;;;;;4.13;0.77;;;;;;;;;;5051170;28;20029;-69
2023/08/23 06:33:52;;;;;;;1.73;0.70;;;;;;;;;;5050865;28;20319;-71
2023/08/23 06:36:18;;;;;;;2.28;0.88;;;;;;;;;;5051149;28;20395;-72
2023/08/23 06:38:44;;;;;;;2.88;1.00;;;;;;;;;;5051070;28;20037;-70
2023/08/23 06:41:10;;;;;;;2.85;0.90;;;;;;;;;;5050807;28;20044;-70
2023/08/23 06:43:36;;;;;;;1.10;0.90;;;;;;;;;;5050890;28;20030;-71
2023/08/23 06:46:02;;;;;;;2.78;1.38;;;;;;;;;;5050768;28;20036;-70
2023/08/23 06:48:28;;;;;;;2.75;0.82;;;;;;;;;;5050678;28;20091;-71
2023/08/23 06:50:54;;;;;;;1.25;0.90;;;;;;;;;;5050759;28;20033;-71
2023/08/23 06:53:21;;;;;;;2.60;1.08;;;24.50;66.80;;;;;;5050455;28;20033;-70
2023/08/23 06:55:46;;;;;;;2.47;0.90;;;;;;;;;;5050983;28;20087;-70
2023/08/23 06:58:12;;;;;;;1.05;0.63;;;;;;;;;;5052776;28;20037;-70
2023/08/23 07:00:38;;;;;;;2.20;1.05;;;;;;;;;;5054206;28;20123;-70
2023/08/23 07:03:05;;;;;;;1.17;0.75;;;;;;;;;;5053913;28;20064;-68
2023/08/23 07:05:34;;;;;;;2.72;0.82;;;24.70;69.20;;;;;;5054566;28;20426;-70
2023/08/23 07:08:00;;;;;;;2.25;0.60;;;;;;;;;;5054224;28;20029;-69
2023/08/23 07:10:27;;;;;;;3.35;0.98;;;;;;;;;;5054391;28;20099;-69
2023/08/23 07:12:53;;;;;;;2.13;0.63;;;;;;;;;;5054197;28;20033;-71
2023/08/23 07:15:19;;;;;;;1.83;0.80;;;;;;;;;;5052691;28;20565;-72
2023/08/23 07:17:45;;;;;;;1.75;0.70;;;;;;;;;;5053960;28;20451;-74
2023/08/23 07:20:13;;;;;;;1.60;0.63;;;;;;;;;;5053926;28;20085;-71
2023/08/23 07:22:40;;;;;;;1.88;0.80;;;;;;;;;;5053912;28;20037;-73
2023/08/23 07:25:07;;;;;;;2.15;0.65;;;;;;;;;;5054307;28;20045;-73
2023/08/23 07:27:33;;;;;;;1.60;0.50;;;;;;;;;;5054168;28;20510;-72
2023/08/23 07:30:00;;;;;;;1.27;0.40;;;;;;;;;;5053763;28;20448;-72
2023/08/23 07:32:30;;;;;;;1.90;0.88;;;;;;;;;;5054071;28;20037;-73
2023/08/23 07:34:58;;;;;;;2.08;0.63;;;;;;;;;;5053972;28;20033;-71
2023/08/23 07:37:25;;;;;;;1.95;0.65;;;;;;;;;;5053626;28;20132;-72
2023/08/23 07:39:51;;;;;;;2.70;0.60;;;;;;;;;;5053817;28;20399;-71
2023/08/23 07:42:17;;;;;;;3.08;0.68;;;;;;;;;;5053691;28;20044;-71
2023/08/23 07:44:44;;;;;;;1.92;0.73;;;;;;;;;;5053671;28;20499;-74
2023/08/23 07:47:10;;;;;;;6.00;1.02;;;;;;;;;;5053571;28;20033;-74
2023/08/23 07:49:37;;;;;;;2.10;0.73;;;;;;;;;;5053235;28;20060;-74
2023/08/23 07:52:03;;;;;;;2.03;0.73;;;;;;;;;;5053573;28;20052;-74
2023/08/23 07:54:30;;;;;;;4.30;0.90;;;;;;;;;;5055406;28;20067;-73
2023/08/23 07:56:56;;;;;;;2.67;0.70;;;;;;;;;;5053253;28;20051;-73
2023/08/23 07:59:23;;;;;;;1.88;0.80;;;;;;;;;;5053532;28;20127;-73
2023/08/23 08:01:49;;;;;;;3.80;1.00;;;;;;;;;;5053726;28;20044;-73
2023/08/23 08:04:15;;;;;;;2.40;0.95;;;;;;;;;;5053036;28;20479;-72
2023/08/23 08:06:42;;;;;;;3.25;1.20;;;;;;;;;;5051984;28;20037;-72
2023/08/23 08:09:08;;;;;;;3.30;0.90;;;;;;;;;;5053206;28;20412;-74
2023/08/23 08:11:35;;;;;;;3.85;1.02;;;;;;;;;;5053486;28;20436;-75
2023/08/23 08:14:01;;;;;;;2.38;1.13;;;;;;;;;;5053290;28;20037;-74
2023/08/23 08:16:28;;;;;;;2.95;1.20;;;;;;;;;;5053388;28;20076;-73
2023/08/23 08:18:54;;;;;;;4.63;1.40;;;;;;;;;;5053557;28;20041;-71
2023/08/23 08:21:21;;;;;;;3.80;1.45;;;;;;;;;;5053255;28;20428;-71
2023/08/23 08:23:47;;;;;;;4.68;1.25;;;;;;;;;;5053317;28;20037;-70
2023/08/23 08:26:14;;;;;;;6.20;1.40;;;;;;;;;;5053306;28;20048;-70
2023/08/23 08:28:43;;;;;;;2.83;1.20;;;25.10;70.90;;;;;;5052842;28;20159;-71
2023/08/23 08:31:13;;;;;;;2.75;1.35;;;25.20;72.30;;;;;;5051946;28;20045;-73
2023/08/23 08:33:40;;;;;;;4.93;1.98;;;;;;;;;;5053567;28;20029;-74
2023/08/23 08:36:06;;;;;;;3.70;1.38;;;;;;;;;;5052878;28;20033;-73
2023/08/23 08:38:32;;;;;;;5.55;1.92;;;;;;;;;;5052908;28;20434;-72
2023/08/23 08:40:59;;;;;;;7.03;2.20;;;;;;;;;;5052887;28;20072;-73
2023/08/23 08:43:26;;;;;;;2.85;1.83;;;;;;;;;;5052697;28;20116;-73
2023/08/23 08:45:52;;;;;;;5.63;2.35;;;;;;;;;;5052993;28;20041;-73
2023/08/23 08:48:19;;;;;;;5.70;2.35;;;;;;;;;;5052923;28;20037;-74
2023/08/23 08:50:45;;;;;;;4.65;2.20;;;;;;;;;;5052932;28;20047;-70
2023/08/23 08:53:17;;;;;;;5.88;2.83;;;25.30;73.10;;;;;;5052742;28;20042;-71
2023/08/23 08:55:45;;;;;;;5.97;2.55;;;25.40;73.60;;;;;;5052820;28;20537;-73
2023/08/23 08:58:15;;;;;;;4.68;2.72;;;;;;;;;;5052431;28;20067;-72
2023/08/23 09:00:42;;;;;;;4.68;2.97;;;;;;;;;;5052535;28;20045;-72
2023/08/23 09:03:09;;;;;;;5.10;2.30;;;25.40;73.40;;;;;;5052146;28;20364;-74
2023/08/23 09:05:36;;;;;;;4.50;2.25;;;;;;;;;;5052302;28;20468;-72
2023/08/23 09:08:02;;;;;;;5.32;2.78;;;;;;;;;;5052558;28;20033;-73
2023/08/23 09:10:29;;;;;;;5.15;2.28;;;;;;;;;;5052056;28;20049;-72
2023/08/23 09:12:55;;;;;;;4.20;2.47;;;;;;;;;;5052347;28;20037;-73
2023/08/23 09:15:24;;;;;;;5.10;2.88;;;;;;;;;;5052051;28;20444;-72
2023/08/23 09:17:55;;;;;;;5.03;2.90;;;25.60;73.70;;;;;;5052004;28;20025;-72
2023/08/23 09:20:22;;;;;;;5.10;2.78;;;;;;;;;;5051484;28;20045;-73
2023/08/23 09:22:57;;;;;;;3.78;2.80;;;25.70;72.80;;;;;;5052280;28;20064;-72
2023/08/23 09:25:23;;;;;;;4.15;2.50;;;;;;;;;;5052011;28;20041;-72
2023/08/23 09:27:52;;;;;;;3.50;2.40;;;25.70;72.90;;;;;;5052266;28;20047;-72
2023/08/23 09:30:19;;;;;;;4.57;2.40;;;;;;;;;;5051780;28;20033;-73
2023/08/23 09:32:46;;;;;;;5.30;2.28;;;;;;;;;;5051876;28;20045;-72
2023/08/23 09:35:17;;;;;;;6.13;2.67;;;25.90;67.50;;;;;;5051955;28;20041;-72
2023/08/23 09:37:47;;;;;;;7.55;2.85;;;26.00;68.20;;;;;;5052031;28;20430;-72
2023/08/23 09:40:21;;;;;;;4.75;2.58;;;26.10;67.70;;;;;;5052013;28;20060;-72
2023/08/23 09:42:49;;;;;;;4.30;2.72;;;26.10;73.60;;;;;;5052039;28;20037;-72
2023/08/23 09:45:21;;;;;;;4.25;2.78;;;26.50;68.10;;;;;;5051922;28;20479;-73
2023/08/23 09:47:51;;;;;;;3.70;2.20;;;26.20;73.60;;;;;;5051860;28;20387;-73
2023/08/23 09:50:22;;;;;;;4.53;2.35;;;26.30;73.30;;;;;;5051667;28;20116;-74
2023/08/23 09:52:52;;;;;;;3.28;2.28;;;26.40;74.00;;;;;;5051439;28;20029;-76
2023/08/23 09:55:18;;;;;;;2.33;1.73;;;;;;;;;;5051649;28;20541;-77
2023/08/23 09:57:44;;;;;;;3.67;2.30;;;;;;;;;;5051432;28;20052;-75
2023/08/23 10:00:11;;;;;;;2.30;1.80;;;;;;;;;;5051387;28;20506;-74
2023/08/23 10:02:37;;;;;;;4.28;2.20;;;;;;;;;;5051715;28;20029;-71
2023/08/23 10:05:06;;;;;;;2.53;1.90;;;26.70;73.20;;;;;;5051717;28;20037;-70
2023/08/23 10:07:35;;;;;;;3.53;2.33;;;26.70;67.50;;;;;;5051383;28;20091;-70
2023/08/23 10:10:03;;;;;;;3.25;2.20;;;;;;;;;;5051203;28;20037;-70
2023/08/23 10:12:29;;;;;;;5.30;2.42;;;;;;;;;;5051336;28;20021;-70
2023/08/23 10:14:58;;;;;;;4.50;2.20;;;26.90;73.20;;;;;;5051398;28;20111;-73
2023/08/23 10:17:24;;;;;;;5.25;2.67;;;;;;;;;;5051247;28;20059;-73
2023/08/23 10:19:52;;;;;;;4.07;2.25;;;;;;;;;;5051162;28;20124;-75
2023/08/23 10:22:18;;;;;;;5.13;2.60;;;;;;;;;;5051609;28;20061;-74
2023/08/23 10:24:48;;;;;;;4.72;2.38;;;27.20;67.10;;;;;;5051924;28;20391;-75
2023/08/23 10:27:14;;;;;;;5.10;2.42;;;;;;;;;;5051158;28;20576;-79
2023/08/23 10:29:40;;;;;;;4.93;2.17;;;;;;;;;;5051603;28;20033;-70
2023/08/23 10:32:10;;;;;;;3.67;2.25;;;27.40;66.80;;;;;;5053344;28;20033;-71
2023/08/23 10:34:38;;;;;;;4.75;2.45;;;27.40;72.50;;;;;;5055344;28;20029;-70
2023/08/23 10:37:18;;;;;;;4.63;2.42;;;27.50;66.60;;;;;;5055308;28;20021;-70
2023/08/23 10:39:49;;;;;;;4.85;2.20;;;27.50;66.40;;;;;;5054958;28;20475;-72
2023/08/23 10:42:19;;;;;;;3.22;1.80;;;27.50;66.00;;;;;;5055098;28;20040;-71
2023/08/23 10:44:53;;;;;;;4.65;2.35;;;27.60;71.70;;;;;;5055143;28;20040;-70
2023/08/23 10:47:20;;;;;;;4.63;2.25;;;;;;;;;;5054829;28;20431;-70
2023/08/23 10:49:47;;;;;;;7.10;2.03;;;;;;;;;;5054718;28;20483;-70
2023/08/23 10:52:13;;;;;;;5.30;2.50;;;;;;;;;;5055049;28;20040;-70
2023/08/23 10:54:40;;;;;;;4.05;2.13;;;27.80;71.20;;;;;;5054916;28;20087;-70
2023/08/23 10:57:07;;;;;;;3.42;2.35;;;;;;;;;;5054550;28;20113;-70
2023/08/23 10:59:33;;;;;;;5.95;2.88;;;;;;;;;;5055394;28;20108;-71
2023/08/23 11:02:00;;;;;;;3.00;1.95;;;;;;;;;;5054652;28;20045;-70
2023/08/23 11:04:27;;;;;;;5.47;1.92;;;;;;;;;;5054354;28;20052;-71
2023/08/23 11:06:53;;;;;;;3.25;1.80;;;;;;;;;;5054661;28;20091;-70
2023/08/23 11:09:19;;;;;;;4.43;1.85;;;;;;;;;;5054375;28;20032;-75
2023/08/23 11:11:45;;;;;;;3.80;1.95;;;;;;;;;;5054385;28;20068;-71
2023/08/23 11:14:12;;;;;;;3.20;1.63;;;;;;;;;;5054468;28;20108;-71
2023/08/23 11:16:38;;;;;;;3.92;1.45;;;;;;;;;;5054357;28;20067;-72
2023/08/23 11:19:06;;;;;;;4.40;2.05;;;28.40;69.40;;;;;;5054211;28;20034;-72
2023/08/23 11:21:32;;;;;;;2.60;1.80;;;28.50;69.40;;;;;;5054204;28;20064;-70
2023/08/23 11:24:03;;;;;;;2.95;1.60;;;30.20;70.10;;;;;;5054240;28;20438;-70
2023/08/23 11:26:29;;;;;;;3.22;2.08;;;;;;;;;;5054664;28;20033;-70
2023/08/23 11:28:56;;;;;;;2.97;1.58;;;;;;;;;;5054085;28;20041;-70
2023/08/23 11:31:22;;;;;;;2.10;1.45;;;;;;;;;;5054101;28;20104;-72
2023/08/23 11:33:48;;;;;;;3.03;1.77;;;;;;;;;;5054170;28;20151;-72
2023/08/23 11:36:18;;;;;;;5.25;1.85;;;28.90;68.50;;;;;;5054061;28;20041;-71
2023/08/23 11:38:46;;;;;;;2.75;1.73;;;28.90;68.20;;;;;;5054185;28;20120;-72
2023/08/23 11:41:12;;;;;;;6.30;2.20;;;;;;;;;;5053889;28;20064;-72
2023/08/23 11:43:44;;;;;;;4.15;2.00;;;29.10;68.20;;;;;;5053301;28;20108;-71
2023/08/23 11:46:10;;;;;;;3.03;1.73;;;;;;;;;;5053842;28;20515;-69
2023/08/23 11:48:37;;;;;;;3.35;1.65;;;;;;;;;;5054231;28;20033;-69
2023/08/23 11:51:05;;;;;;;3.42;1.75;;;29.30;64.80;;;;;;5053789;28;20108;-70
2023/08/23 11:53:31;;;;;;;3.67;2.08;;;;;;;;;;5053803;28;20029;-71
2023/08/23 11:55:57;;;;;;;2.75;1.70;;;;;;;;;;5054214;28;20055;-76
2023/08/23 11:58:23;;;;;;;3.78;1.60;;;;;;;;;;5053727;28;20403;-76
2023/08/23 12:00:50;;;;;;;2.85;1.60;;;29.60;67.60;;;;;;5053599;28;20048;-76
2023/08/23 12:03:16;;;;;;;3.83;1.63;;;;;;;;;;5053240;28;20037;-76
2023/08/23 12:05:42;;;;;;;4.80;1.65;;;;;;;;;;5053669;28;20033;-76
2023/08/23 12:08:08;;;;;;;2.85;1.38;;;;;;;;;;5053524;28;20041;-70
2023/08/23 12:10:34;;;;;;;4.43;1.48;;;;;;;;;;5053433;28;20043;-71
2023/08/23 12:13:00;;;;;;;3.47;1.35;;;;;;;;;;5053397;28;20174;-70
2023/08/23 12:15:26;;;;;;;1.52;1.10;;;;;;;;;;5053295;28;20037;-70
2023/08/23 12:17:54;;;;;;;1.45;1.20;;;;;;;;;;5053446;28;20063;-70
2023/08/23 12:20:20;;;;;;;3.58;1.50;;;;;;;;;;5053777;28;20441;-70
2023/08/23 12:22:47;;;;;;;3.00;1.15;;;;;;;;;;5053512;28;20065;-72
2023/08/23 12:25:14;;;;;;;1.77;1.05;;;29.50;67.10;;;;;;5053120;28;20040;-75
2023/08/23 12:27:40;;;;;;;1.80;1.27;;;;;;;;;;5053260;28;20160;-76
2023/08/23 12:30:09;;;;;;;1.90;1.35;;;29.40;65.90;;;;;;5053078;28;20041;-76
2023/08/23 12:32:35;;;;;;;2.88;1.35;;;;;;;;;;5053171;28;20399;-75
2023/08/23 12:35:04;;;;;;;3.05;1.40;;;29.30;69.50;;;;;;5052995;28;20029;-74
2023/08/23 12:37:30;;;;;;;1.92;1.20;;;;;;;;;;5053186;28;20083;-77
2023/08/23 12:39:56;;;;;;;2.30;1.40;;;;;;;;;;5052885;28;20075;-76
2023/08/23 12:42:23;;;;;;;2.15;1.33;;;;;;;;;;5052997;28;20037;-76
2023/08/23 12:44:49;;;;;;;1.85;1.10;;;;;;;;;;5052824;28;20068;-76
2023/08/23 12:47:16;;;;;;;1.67;1.02;;;;;;;;;;5052930;28;20063;-76
2023/08/23 12:49:42;;;;;;;3.25;1.35;;;;;;;;;;5052745;28;20116;-75
2023/08/23 12:52:11;;;;;;;1.50;1.13;;;;;;;;;;5053045;28;20376;-75
2023/08/23 12:54:38;;;;;;;1.57;1.00;;;;;;;;;;5051787;28;20056;-74
2023/08/23 12:57:04;;;;;;;4.35;1.00;;;;;;;;;;5052773;28;20032;-75
2023/08/23 12:59:31;;;;;;;2.38;1.08;;;;;;;;;;5052752;28;20037;-75
2023/08/23 13:01:58;;;;;;;1.55;1.00;;;;;;;;;;5052879;28;20047;-72
2023/08/23 13:04:24;;;;;;;1.83;1.08;;;;;;;;;;5052397;28;20420;-71
2023/08/23 13:06:50;;;;;;;1.08;0.98;;;;;;;;;;5052304;28;20127;-72
2023/08/23 13:09:17;;;;;;;1.20;1.00;;;;;;;;;;5052541;28;20044;-71
2023/08/23 13:11:43;;;;;;;2.80;1.02;;;;;;;;;;5052576;28;20033;-70
2023/08/23 13:14:10;;;;;;;1.90;1.30;;;;;;;;;;5052060;28;20048;-72
2023/08/23 14:37:19;;;;;;;2.17;1.10;;;;;;;;;;6121239;23;1320300;-71
2023/08/23 14:39:47;;;;;;;4.30;0.82;;;;;;;;;;6155242;23;20012;-71
2023/08/23 14:42:14;;;;;;;2.75;1.02;;;;;;;;;;6155324;23;20405;-72
2023/08/23 14:44:40;;;;;;;2.65;1.10;;;;;;;;;;6165291;23;20008;-72
2023/08/23 14:47:06;;;;;;;2.97;0.90;;;;;;;;;;6155397;23;20001;-72
2023/08/23 14:49:33;;;;;;;1.45;1.10;;;;;;;;;;6155131;23;20006;-72
2023/08/23 14:51:59;;;;;;;1.77;0.90;;;;;;;;;;6165017;23;20079;-70
2023/08/23 14:54:25;;;;;;;1.80;0.80;;;;;;;;;;6155055;23;20001;-77
2023/08/23 14:56:51;;;;;;;2.65;0.90;;;;;;;;;;6155035;23;20056;-77
2023/08/23 14:59:18;;;;;;;1.50;1.00;;;;;;;;;;6155593;23;20057;-77
2023/08/23 15:01:44;;;;;;;4.18;0.95;;;;;;;;;;6149930;23;20041;-77
2023/08/23 15:04:11;;;;;;;1.65;0.85;;;;;;;;;;6125537;23;20371;-77
2023/08/23 15:06:37;;;;;;;2.22;0.80;;;;;;;;;;6125078;23;20057;-76
2023/08/23 15:09:06;;;;;;;1.00;0.90;;;;;;;;;;6125031;23;20013;-77
2023/08/23 15:11:33;;;;;;;1.42;1.00;;;;;;;;;;6125642;23;20002;-78
2023/08/23 15:13:59;;;;;;;1.45;0.90;;;;;;;;;;6123845;23;20002;-76
2023/08/23 15:16:26;;;;;;;1.48;0.80;;;;;;;;;;6125133;23;20010;-77
2023/08/23 15:18:52;;;;;;;2.33;0.80;;;;;;;;;;6125476;23;20381;-78
2023/08/23 15:21:19;;;;;;;1.50;0.95;;;;;;;;;;6125098;23;20010;-79
2023/08/23 15:23:45;;;;;;;2.40;1.00;;;;;;;;;;6134832;23;20002;-72
2023/08/23 15:26:11;;;;;;;0.90;0.70;;;;;;;;;;6134802;23;20032;-73
2023/08/23 15:28:37;;;;;;;1.45;0.68;;;;;;;;;;6134878;23;20386;-70
2023/08/23 15:31:04;;;;;;;1.48;0.95;;;;;;;;;;6134752;23;20025;-73
2023/08/23 15:33:30;;;;;;;1.80;0.80;;;;;;;;;;6134807;23;20434;-72
2023/08/23 15:35:57;;;;;;;3.25;0.90;;;;;;;;;;6124551;23;20057;-71
2023/08/23 15:38:23;;;;;;;2.50;1.05;;;;;;;;;;6125540;23;20030;-71